sensor_id;sensor_type;location;lat;lon;timestamp;temperature;humidity
66568;DHT22;53422;49.296;6.900;2023-05-18T00:01:57;10.90;79.20
66568;DHT22;53422;49.296;6.900;2023-05-18T00:04:23;10.90;79.20
66568;DHT22;53422;49.296;6.900;2023-05-18T00:06:51;10.90;79.70
66568;DHT22;53422;49.296;6.900;2023-05-18T00:09:23;10.80;79.40
66568;DHT22;53422;49.296;6.900;2023-05-18T00:11:50;10.80;79.70
66568;DHT22;53422;49.296;6.900;2023-05-18T00:14:16;10.80;79.90
66568;DHT22;53422;49.296;6.900;2023-05-18T00:16:42;10.70;80.20
66568;DHT22;53422;49.296;6.900;2023-05-18T00:19:07;10.70;80.40
66568;DHT22;53422;49.296;6.900;2023-05-18T00:21:33;10.60;80.80
66568;DHT22;53422;49.296;6.900;2023-05-18T00:24:00;10.60;81.10
66568;DHT22;53422;49.296;6.900;2023-05-18T00:26:26;10.70;81.10
66568;DHT22;53422;49.296;6.900;2023-05-18T00:28:51;10.60;81.30
66568;DHT22;53422;49.296;6.900;2023-05-18T00:31:17;10.60;81.30
66568;DHT22;53422;49.296;6.900;2023-05-18T00:33:43;10.60;81.70
66568;DHT22;53422;49.296;6.900;2023-05-18T00:36:11;10.60;82.00
66568;DHT22;53422;49.296;6.900;2023-05-18T00:38:37;10.60;81.90
66568;DHT22;53422;49.296;6.900;2023-05-18T00:41:03;10.60;81.40
66568;DHT22;53422;49.296;6.900;2023-05-18T00:43:28;10.60;82.20
66568;DHT22;53422;49.296;6.900;2023-05-18T00:45:54;10.70;81.50
66568;DHT22;53422;49.296;6.900;2023-05-18T00:48:20;10.60;81.00
66568;DHT22;53422;49.296;6.900;2023-05-18T00:50:45;10.60;81.80
66568;DHT22;53422;49.296;6.900;2023-05-18T00:53:11;10.60;82.30
66568;DHT22;53422;49.296;6.900;2023-05-18T00:55:37;10.50;82.40
66568;DHT22;53422;49.296;6.900;2023-05-18T00:58:03;10.50;82.50
66568;DHT22;53422;49.296;6.900;2023-05-18T01:00:30;10.40;81.80
66568;DHT22;53422;49.296;6.900;2023-05-18T01:02:58;10.40;82.90
66568;DHT22;53422;49.296;6.900;2023-05-18T01:05:24;10.30;82.20
66568;DHT22;53422;49.296;6.900;2023-05-18T01:07:49;10.30;82.80
66568;DHT22;53422;49.296;6.900;2023-05-18T01:10:17;10.30;83.00
66568;DHT22;53422;49.296;6.900;2023-05-18T01:12:52;10.30;81.70
66568;DHT22;53422;49.296;6.900;2023-05-18T01:15:39;10.30;82.60
66568;DHT22;53422;49.296;6.900;2023-05-18T01:18:24;10.30;83.40
66568;DHT22;53422;49.296;6.900;2023-05-18T01:21:17;10.30;82.90
66568;DHT22;53422;49.296;6.900;2023-05-18T01:26:30;10.20;83.50
66568;DHT22;53422;49.296;6.900;2023-05-18T01:29:00;10.10;82.90
66568;DHT22;53422;49.296;6.900;2023-05-18T01:31:27;10.10;83.20
66568;DHT22;53422;49.296;6.900;2023-05-18T01:33:54;10.10;84.00
66568;DHT22;53422;49.296;6.900;2023-05-18T01:36:19;9.90;83.60
66568;DHT22;53422;49.296;6.900;2023-05-18T01:38:46;10.00;84.00
66568;DHT22;53422;49.296;6.900;2023-05-18T01:41:21;10.00;84.00
66568;DHT22;53422;49.296;6.900;2023-05-18T01:49:20;9.80;84.70
66568;DHT22;53422;49.296;6.900;2023-05-18T01:51:49;9.90;83.60
66568;DHT22;53422;49.296;6.900;2023-05-18T01:54:18;9.90;83.50
66568;DHT22;53422;49.296;6.900;2023-05-18T01:56:44;9.90;84.20
66568;DHT22;53422;49.296;6.900;2023-05-18T01:59:11;9.90;84.00
66568;DHT22;53422;49.296;6.900;2023-05-18T02:01:38;10.00;84.20
66568;DHT22;53422;49.296;6.900;2023-05-18T02:04:08;9.90;83.80
66568;DHT22;53422;49.296;6.900;2023-05-18T02:06:34;9.90;83.80
66568;DHT22;53422;49.296;6.900;2023-05-18T02:09:01;10.00;83.80
66568;DHT22;53422;49.296;6.900;2023-05-18T02:11:28;9.90;83.70
66568;DHT22;53422;49.296;6.900;2023-05-18T02:13:54;9.90;84.60
66568;DHT22;53422;49.296;6.900;2023-05-18T02:16:20;9.90;84.60
66568;DHT22;53422;49.296;6.900;2023-05-18T02:18:45;9.90;84.10
66568;DHT22;53422;49.296;6.900;2023-05-18T02:21:11;9.90;84.80
66568;DHT22;53422;49.296;6.900;2023-05-18T02:23:38;9.90;83.20
66568;DHT22;53422;49.296;6.900;2023-05-18T02:26:04;9.90;84.60
66568;DHT22;53422;49.296;6.900;2023-05-18T02:28:30;9.80;84.70
66568;DHT22;53422;49.296;6.900;2023-05-18T02:31:16;9.80;83.90
66568;DHT22;53422;49.296;6.900;2023-05-18T02:33:41;9.80;83.90
66568;DHT22;53422;49.296;6.900;2023-05-18T02:36:11;9.80;83.70
66568;DHT22;53422;49.296;6.900;2023-05-18T02:38:42;9.80;83.30
66568;DHT22;53422;49.296;6.900;2023-05-18T02:41:11;9.80;82.80
66568;DHT22;53422;49.296;6.900;2023-05-18T02:43:36;9.70;83.40
66568;DHT22;53422;49.296;6.900;2023-05-18T02:46:03;9.80;83.90
66568;DHT22;53422;49.296;6.900;2023-05-18T02:48:29;9.80;83.40
66568;DHT22;53422;49.296;6.900;2023-05-18T02:50:55;9.70;84.50
66568;DHT22;53422;49.296;6.900;2023-05-18T02:53:21;9.70;84.60
66568;DHT22;53422;49.296;6.900;2023-05-18T02:55:47;9.70;84.10
66568;DHT22;53422;49.296;6.900;2023-05-18T02:58:14;9.70;83.90
66568;DHT22;53422;49.296;6.900;2023-05-18T03:00:40;9.70;84.10
66568;DHT22;53422;49.296;6.900;2023-05-18T03:03:06;9.70;84.60
66568;DHT22;53422;49.296;6.900;2023-05-18T03:05:36;9.60;84.00
66568;DHT22;53422;49.296;6.900;2023-05-18T03:08:01;9.60;85.00
66568;DHT22;53422;49.296;6.900;2023-05-18T03:10:27;9.60;84.70
66568;DHT22;53422;49.296;6.900;2023-05-18T03:12:53;9.60;84.90
66568;DHT22;53422;49.296;6.900;2023-05-18T03:15:19;9.50;86.40
66568;DHT22;53422;49.296;6.900;2023-05-18T03:17:45;9.50;85.50
66568;DHT22;53422;49.296;6.900;2023-05-18T03:20:11;9.50;84.90
66568;DHT22;53422;49.296;6.900;2023-05-18T03:22:39;9.50;85.10
66568;DHT22;53422;49.296;6.900;2023-05-18T03:25:05;9.40;86.50
66568;DHT22;53422;49.296;6.900;2023-05-18T03:27:31;9.40;85.90
66568;DHT22;53422;49.296;6.900;2023-05-18T03:29:58;9.40;85.50
66568;DHT22;53422;49.296;6.900;2023-05-18T03:32:24;9.40;85.90
66568;DHT22;53422;49.296;6.900;2023-05-18T03:34:53;9.40;86.40
66568;DHT22;53422;49.296;6.900;2023-05-18T03:37:19;9.40;85.80
66568;DHT22;53422;49.296;6.900;2023-05-18T03:39:45;9.40;86.00
66568;DHT22;53422;49.296;6.900;2023-05-18T03:42:11;9.30;86.80
66568;DHT22;53422;49.296;6.900;2023-05-18T03:44:36;9.30;86.40
66568;DHT22;53422;49.296;6.900;2023-05-18T03:47:02;9.30;86.50
66568;DHT22;53422;49.296;6.900;2023-05-18T03:49:32;9.30;86.40
66568;DHT22;53422;49.296;6.900;2023-05-18T03:51:58;9.30;85.80
66568;DHT22;53422;49.296;6.900;2023-05-18T03:54:23;9.30;85.60
66568;DHT22;53422;49.296;6.900;2023-05-18T03:56:50;9.30;84.90
66568;DHT22;53422;49.296;6.900;2023-05-18T03:59:15;9.30;85.10
66568;DHT22;53422;49.296;6.900;2023-05-18T04:01:41;9.30;86.00
66568;DHT22;53422;49.296;6.900;2023-05-18T04:04:09;9.30;86.40
66568;DHT22;53422;49.296;6.900;2023-05-18T04:06:45;9.30;87.00
66568;DHT22;53422;49.296;6.900;2023-05-18T04:09:11;9.30;86.50
66568;DHT22;53422;49.296;6.900;2023-05-18T04:11:39;9.20;86.70
66568;DHT22;53422;49.296;6.900;2023-05-18T04:14:07;9.20;87.50
66568;DHT22;53422;49.296;6.900;2023-05-18T04:16:33;9.10;87.70
66568;DHT22;53422;49.296;6.900;2023-05-18T04:18:59;9.10;87.90
66568;DHT22;53422;49.296;6.900;2023-05-18T04:21:25;9.20;87.90
66568;DHT22;53422;49.296;6.900;2023-05-18T04:23:50;9.10;87.90
66568;DHT22;53422;49.296;6.900;2023-05-18T04:26:16;9.10;87.00
66568;DHT22;53422;49.296;6.900;2023-05-18T04:28:45;9.10;87.70
66568;DHT22;53422;49.296;6.900;2023-05-18T04:31:12;9.10;88.70
66568;DHT22;53422;49.296;6.900;2023-05-18T04:33:42;9.10;88.50
66568;DHT22;53422;49.296;6.900;2023-05-18T04:36:11;9.20;89.80
66568;DHT22;53422;49.296;6.900;2023-05-18T04:38:36;9.30;89.10
66568;DHT22;53422;49.296;6.900;2023-05-18T04:41:02;9.30;90.80
66568;DHT22;53422;49.296;6.900;2023-05-18T04:43:32;9.40;90.90
66568;DHT22;53422;49.296;6.900;2023-05-18T04:45:58;9.40;90.90
66568;DHT22;53422;49.296;6.900;2023-05-18T04:48:24;9.40;91.30
66568;DHT22;53422;49.296;6.900;2023-05-18T04:50:50;9.40;91.60
66568;DHT22;53422;49.296;6.900;2023-05-18T04:53:21;9.50;92.30
66568;DHT22;53422;49.296;6.900;2023-05-18T04:55:50;9.40;90.20
66568;DHT22;53422;49.296;6.900;2023-05-18T04:58:17;9.40;93.10
66568;DHT22;53422;49.296;6.900;2023-05-18T05:00:43;9.60;92.10
66568;DHT22;53422;49.296;6.900;2023-05-18T05:03:09;9.50;92.60
66568;DHT22;53422;49.296;6.900;2023-05-18T05:05:34;9.70;93.30
66568;DHT22;53422;49.296;6.900;2023-05-18T05:08:00;9.80;93.30
66568;DHT22;53422;49.296;6.900;2023-05-18T05:10:29;9.80;91.90
66568;DHT22;53422;49.296;6.900;2023-05-18T05:12:54;9.80;93.20
66568;DHT22;53422;49.296;6.900;2023-05-18T05:15:20;9.80;93.30
66568;DHT22;53422;49.296;6.900;2023-05-18T05:17:46;9.90;92.00
66568;DHT22;53422;49.296;6.900;2023-05-18T05:20:12;9.90;92.70
66568;DHT22;53422;49.296;6.900;2023-05-18T05:22:38;10.00;93.10
66568;DHT22;53422;49.296;6.900;2023-05-18T05:25:04;10.00;92.20
66568;DHT22;53422;49.296;6.900;2023-05-18T05:27:30;10.20;92.30
66568;DHT22;53422;49.296;6.900;2023-05-18T05:29:56;10.20;91.80
66568;DHT22;53422;49.296;6.900;2023-05-18T05:32:21;10.30;92.40
66568;DHT22;53422;49.296;6.900;2023-05-18T05:34:47;10.30;91.70
66568;DHT22;53422;49.296;6.900;2023-05-18T05:37:14;10.40;93.10
66568;DHT22;53422;49.296;6.900;2023-05-18T05:39:40;10.40;92.70
66568;DHT22;53422;49.296;6.900;2023-05-18T05:42:06;10.50;92.00
66568;DHT22;53422;49.296;6.900;2023-05-18T05:44:33;10.50;91.10
66568;DHT22;53422;49.296;6.900;2023-05-18T05:46:58;10.50;92.30
66568;DHT22;53422;49.296;6.900;2023-05-18T05:49:24;10.60;92.60
66568;DHT22;53422;49.296;6.900;2023-05-18T05:51:50;10.60;90.50
66568;DHT22;53422;49.296;6.900;2023-05-18T05:54:15;10.70;91.40
66568;DHT22;53422;49.296;6.900;2023-05-18T05:56:41;10.70;91.10
66568;DHT22;53422;49.296;6.900;2023-05-18T05:59:07;10.80;91.50
66568;DHT22;53422;49.296;6.900;2023-05-18T06:01:33;10.90;92.80
66568;DHT22;53422;49.296;6.900;2023-05-18T06:03:59;11.00;89.50
66568;DHT22;53422;49.296;6.900;2023-05-18T06:06:26;10.90;87.90
66568;DHT22;53422;49.296;6.900;2023-05-18T06:08:51;11.00;90.70
66568;DHT22;53422;49.296;6.900;2023-05-18T06:11:17;11.00;90.50
66568;DHT22;53422;49.296;6.900;2023-05-18T06:13:43;10.90;90.80
66568;DHT22;53422;49.296;6.900;2023-05-18T06:16:08;11.00;89.30
66568;DHT22;53422;49.296;6.900;2023-05-18T06:18:34;11.00;89.80
66568;DHT22;53422;49.296;6.900;2023-05-18T06:21:00;11.10;90.50
66568;DHT22;53422;49.296;6.900;2023-05-18T06:23:26;11.20;88.00
66568;DHT22;53422;49.296;6.900;2023-05-18T06:25:52;11.10;87.50
66568;DHT22;53422;49.296;6.900;2023-05-18T06:28:18;11.20;89.70
66568;DHT22;53422;49.296;6.900;2023-05-18T06:30:43;11.20;87.50
66568;DHT22;53422;49.296;6.900;2023-05-18T06:33:09;11.30;86.30
66568;DHT22;53422;49.296;6.900;2023-05-18T06:35:35;11.30;87.50
66568;DHT22;53422;49.296;6.900;2023-05-18T06:38:01;11.30;86.10
66568;DHT22;53422;49.296;6.900;2023-05-18T06:40:27;11.50;86.20
66568;DHT22;53422;49.296;6.900;2023-05-18T06:42:52;11.40;84.40
66568;DHT22;53422;49.296;6.900;2023-05-18T06:45:18;11.40;85.50
66568;DHT22;53422;49.296;6.900;2023-05-18T06:47:44;11.40;85.40
66568;DHT22;53422;49.296;6.900;2023-05-18T06:50:10;11.50;84.10
66568;DHT22;53422;49.296;6.900;2023-05-18T06:52:36;11.60;83.70
66568;DHT22;53422;49.296;6.900;2023-05-18T06:55:02;11.60;84.00
66568;DHT22;53422;49.296;6.900;2023-05-18T06:57:29;11.60;84.50
66568;DHT22;53422;49.296;6.900;2023-05-18T06:59:56;11.70;84.50
66568;DHT22;53422;49.296;6.900;2023-05-18T07:02:22;11.70;84.10
66568;DHT22;53422;49.296;6.900;2023-05-18T07:04:48;11.80;83.90
66568;DHT22;53422;49.296;6.900;2023-05-18T07:07:14;11.90;83.50
66568;DHT22;53422;49.296;6.900;2023-05-18T07:09:41;12.00;82.70
66568;DHT22;53422;49.296;6.900;2023-05-18T07:12:10;12.10;81.80
66568;DHT22;53422;49.296;6.900;2023-05-18T07:14:35;12.20;79.90
66568;DHT22;53422;49.296;6.900;2023-05-18T07:17:01;12.30;81.50
66568;DHT22;53422;49.296;6.900;2023-05-18T07:19:28;12.30;81.50
66568;DHT22;53422;49.296;6.900;2023-05-18T07:21:54;12.30;79.60
66568;DHT22;53422;49.296;6.900;2023-05-18T07:24:21;12.40;79.90
66568;DHT22;53422;49.296;6.900;2023-05-18T07:26:46;12.40;78.90
66568;DHT22;53422;49.296;6.900;2023-05-18T07:29:12;12.40;79.70
66568;DHT22;53422;49.296;6.900;2023-05-18T07:31:38;12.50;78.20
66568;DHT22;53422;49.296;6.900;2023-05-18T07:34:05;12.80;78.70
66568;DHT22;53422;49.296;6.900;2023-05-18T07:36:31;12.90;78.40
66568;DHT22;53422;49.296;6.900;2023-05-18T07:38:57;12.80;80.10
66568;DHT22;53422;49.296;6.900;2023-05-18T07:41:23;12.90;77.30
66568;DHT22;53422;49.296;6.900;2023-05-18T07:43:50;12.90;76.60
66568;DHT22;53422;49.296;6.900;2023-05-18T07:46:16;12.80;75.50
66568;DHT22;53422;49.296;6.900;2023-05-18T07:48:42;12.90;75.50
66568;DHT22;53422;49.296;6.900;2023-05-18T07:51:07;13.00;76.20
66568;DHT22;53422;49.296;6.900;2023-05-18T07:53:33;13.10;73.80
66568;DHT22;53422;49.296;6.900;2023-05-18T07:55:59;13.30;75.20
66568;DHT22;53422;49.296;6.900;2023-05-18T07:58:25;13.30;72.60
66568;DHT22;53422;49.296;6.900;2023-05-18T08:00:51;13.40;73.70
66568;DHT22;53422;49.296;6.900;2023-05-18T08:03:17;13.60;74.00
66568;DHT22;53422;49.296;6.900;2023-05-18T08:05:43;13.50;69.20
66568;DHT22;53422;49.296;6.900;2023-05-18T08:08:08;13.50;67.10
66568;DHT22;53422;49.296;6.900;2023-05-18T08:10:36;13.60;70.60
66568;DHT22;53422;49.296;6.900;2023-05-18T08:13:02;13.80;70.10
66568;DHT22;53422;49.296;6.900;2023-05-18T08:15:28;13.80;66.50
66568;DHT22;53422;49.296;6.900;2023-05-18T08:17:53;13.90;68.90
66568;DHT22;53422;49.296;6.900;2023-05-18T08:20:19;14.20;65.30
66568;DHT22;53422;49.296;6.900;2023-05-18T08:22:45;13.90;67.10
66568;DHT22;53422;49.296;6.900;2023-05-18T08:25:11;14.00;65.00
66568;DHT22;53422;49.296;6.900;2023-05-18T08:27:36;13.90;62.70
66568;DHT22;53422;49.296;6.900;2023-05-18T08:30:02;14.10;67.90
66568;DHT22;53422;49.296;6.900;2023-05-18T08:32:28;14.10;59.20
66568;DHT22;53422;49.296;6.900;2023-05-18T08:34:53;14.20;61.40
66568;DHT22;53422;49.296;6.900;2023-05-18T08:37:19;14.30;61.00
66568;DHT22;53422;49.296;6.900;2023-05-18T08:39:46;14.10;58.70
66568;DHT22;53422;49.296;6.900;2023-05-18T08:42:16;14.10;60.20
66568;DHT22;53422;49.296;6.900;2023-05-18T08:44:49;14.50;58.90
66568;DHT22;53422;49.296;6.900;2023-05-18T08:47:16;14.40;62.00
66568;DHT22;53422;49.296;6.900;2023-05-18T08:49:42;14.40;58.20
66568;DHT22;53422;49.296;6.900;2023-05-18T08:52:09;14.40;58.40
66568;DHT22;53422;49.296;6.900;2023-05-18T08:54:40;14.50;58.90
66568;DHT22;53422;49.296;6.900;2023-05-18T08:57:08;14.90;60.30
66568;DHT22;53422;49.296;6.900;2023-05-18T08:59:39;14.90;58.90
66568;DHT22;53422;49.296;6.900;2023-05-18T09:02:07;15.00;59.20
66568;DHT22;53422;49.296;6.900;2023-05-18T09:04:32;15.10;59.50
66568;DHT22;53422;49.296;6.900;2023-05-18T09:07:03;15.10;56.80
66568;DHT22;53422;49.296;6.900;2023-05-18T09:09:29;15.10;56.90
66568;DHT22;53422;49.296;6.900;2023-05-18T09:11:56;15.20;58.50
66568;DHT22;53422;49.296;6.900;2023-05-18T09:14:22;15.20;58.30
66568;DHT22;53422;49.296;6.900;2023-05-18T09:16:52;15.30;56.10
66568;DHT22;53422;49.296;6.900;2023-05-18T09:19:18;15.30;56.60
66568;DHT22;53422;49.296;6.900;2023-05-18T09:21:44;15.10;56.60
66568;DHT22;53422;49.296;6.900;2023-05-18T09:24:10;15.20;56.30
66568;DHT22;53422;49.296;6.900;2023-05-18T09:26:37;15.20;57.00
66568;DHT22;53422;49.296;6.900;2023-05-18T09:29:17;15.20;55.60
66568;DHT22;53422;49.296;6.900;2023-05-18T09:31:44;15.30;54.90
66568;DHT22;53422;49.296;6.900;2023-05-18T09:34:11;15.30;54.70
66568;DHT22;53422;49.296;6.900;2023-05-18T09:36:37;15.30;54.50
66568;DHT22;53422;49.296;6.900;2023-05-18T09:39:07;15.30;54.10
66568;DHT22;53422;49.296;6.900;2023-05-18T09:41:36;15.20;54.10
66568;DHT22;53422;49.296;6.900;2023-05-18T09:44:03;15.40;54.40
66568;DHT22;53422;49.296;6.900;2023-05-18T09:46:35;15.40;54.20
66568;DHT22;53422;49.296;6.900;2023-05-18T09:49:03;15.40;53.90
66568;DHT22;53422;49.296;6.900;2023-05-18T09:51:29;15.50;54.10
66568;DHT22;53422;49.296;6.900;2023-05-18T09:53:57;15.50;54.20
66568;DHT22;53422;49.296;6.900;2023-05-18T09:56:26;15.60;55.20
66568;DHT22;53422;49.296;6.900;2023-05-18T09:58:52;15.60;54.90
66568;DHT22;53422;49.296;6.900;2023-05-18T10:01:18;15.60;53.70
66568;DHT22;53422;49.296;6.900;2023-05-18T10:03:44;15.80;55.10
66568;DHT22;53422;49.296;6.900;2023-05-18T10:06:12;15.70;53.60
66568;DHT22;53422;49.296;6.900;2023-05-18T10:08:39;15.80;53.60
66568;DHT22;53422;49.296;6.900;2023-05-18T10:11:06;15.90;53.50
66568;DHT22;53422;49.296;6.900;2023-05-18T10:13:33;15.80;54.00
66568;DHT22;53422;49.296;6.900;2023-05-18T10:16:01;16.00;54.50
66568;DHT22;53422;49.296;6.900;2023-05-18T10:18:29;16.10;53.90
66568;DHT22;53422;49.296;6.900;2023-05-18T10:20:56;15.90;53.60
66568;DHT22;53422;49.296;6.900;2023-05-18T10:23:24;15.90;51.80
66568;DHT22;53422;49.296;6.900;2023-05-18T10:25:51;16.00;53.30
66568;DHT22;53422;49.296;6.900;2023-05-18T10:28:19;16.10;52.40
66568;DHT22;53422;49.296;6.900;2023-05-18T10:30:50;15.90;51.80
66568;DHT22;53422;49.296;6.900;2023-05-18T10:33:17;16.10;52.30
66568;DHT22;53422;49.296;6.900;2023-05-18T10:35:44;16.00;51.80
66568;DHT22;53422;49.296;6.900;2023-05-18T10:38:25;16.20;52.50
66568;DHT22;53422;49.296;6.900;2023-05-18T10:40:55;16.30;51.50
66568;DHT22;53422;49.296;6.900;2023-05-18T10:43:23;16.30;51.60
66568;DHT22;53422;49.296;6.900;2023-05-18T10:45:53;16.40;52.20
66568;DHT22;53422;49.296;6.900;2023-05-18T10:48:20;16.40;51.10
66568;DHT22;53422;49.296;6.900;2023-05-18T10:50:51;16.10;50.00
66568;DHT22;53422;49.296;6.900;2023-05-18T10:53:18;16.00;52.50
66568;DHT22;53422;49.296;6.900;2023-05-18T10:55:46;15.90;51.30
66568;DHT22;53422;49.296;6.900;2023-05-18T10:58:14;15.90;52.70
66568;DHT22;53422;49.296;6.900;2023-05-18T11:00:45;16.10;51.50
66568;DHT22;53422;49.296;6.900;2023-05-18T11:03:12;16.20;51.00
66568;DHT22;53422;49.296;6.900;2023-05-18T11:05:39;16.10;51.00
66568;DHT22;53422;49.296;6.900;2023-05-18T11:08:04;16.20;52.20
66568;DHT22;53422;49.296;6.900;2023-05-18T11:13:00;16.20;51.40
66568;DHT22;53422;49.296;6.900;2023-05-18T11:18:39;16.20;51.10
66568;DHT22;53422;49.296;6.900;2023-05-18T11:21:19;16.30;51.60
66568;DHT22;53422;49.296;6.900;2023-05-18T11:26:56;16.50;51.60
66568;DHT22;53422;49.296;6.900;2023-05-18T11:31:57;16.30;51.20
66568;DHT22;53422;49.296;6.900;2023-05-18T11:37:01;16.50;49.20
66568;DHT22;53422;49.296;6.900;2023-05-18T11:39:27;16.70;51.40
66568;DHT22;53422;49.296;6.900;2023-05-18T11:42:07;16.80;50.80
66568;DHT22;53422;49.296;6.900;2023-05-18T11:44:33;17.10;51.20
66568;DHT22;53422;49.296;6.900;2023-05-18T11:47:00;17.10;49.80
66568;DHT22;53422;49.296;6.900;2023-05-18T11:49:32;17.30;51.10
66568;DHT22;53422;49.296;6.900;2023-05-18T11:54:47;17.20;49.80
66568;DHT22;53422;49.296;6.900;2023-05-18T11:57:15;16.90;47.80
66568;DHT22;53422;49.296;6.900;2023-05-18T11:59:53;16.90;52.20
66568;DHT22;53422;49.296;6.900;2023-05-18T12:02:21;17.00;51.60
66568;DHT22;53422;49.296;6.900;2023-05-18T12:04:52;17.00;50.80
66568;DHT22;53422;49.296;6.900;2023-05-18T12:07:19;16.90;50.90
66568;DHT22;53422;49.296;6.900;2023-05-18T12:09:47;17.00;49.20
66568;DHT22;53422;49.296;6.900;2023-05-18T12:12:14;17.00;50.60
66568;DHT22;53422;49.296;6.900;2023-05-18T12:14:42;17.20;50.50
66568;DHT22;53422;49.296;6.900;2023-05-18T12:17:10;17.50;48.70
66568;DHT22;53422;49.296;6.900;2023-05-18T12:19:37;17.70;49.40
66568;DHT22;53422;49.296;6.900;2023-05-18T12:22:03;17.60;49.40
66568;DHT22;53422;49.296;6.900;2023-05-18T12:24:31;17.70;50.10
66568;DHT22;53422;49.296;6.900;2023-05-18T12:26:57;17.40;47.60
66568;DHT22;53422;49.296;6.900;2023-05-18T12:29:28;17.70;47.40
66568;DHT22;53422;49.296;6.900;2023-05-18T12:31:54;17.90;48.20
66568;DHT22;53422;49.296;6.900;2023-05-18T12:34:20;18.00;49.80
66568;DHT22;53422;49.296;6.900;2023-05-18T12:36:52;18.00;47.80
66568;DHT22;53422;49.296;6.900;2023-05-18T12:39:19;18.00;49.30
66568;DHT22;53422;49.296;6.900;2023-05-18T12:41:45;18.00;48.80
66568;DHT22;53422;49.296;6.900;2023-05-18T12:44:11;18.10;48.70
66568;DHT22;53422;49.296;6.900;2023-05-18T12:46:37;18.20;48.00
66568;DHT22;53422;49.296;6.900;2023-05-18T12:49:03;18.20;48.00
66568;DHT22;53422;49.296;6.900;2023-05-18T12:51:37;18.10;48.30
66568;DHT22;53422;49.296;6.900;2023-05-18T12:54:06;18.20;47.50
66568;DHT22;53422;49.296;6.900;2023-05-18T12:56:52;18.10;48.20
66568;DHT22;53422;49.296;6.900;2023-05-18T12:59:23;18.00;47.50
66568;DHT22;53422;49.296;6.900;2023-05-18T13:01:49;18.10;47.60
66568;DHT22;53422;49.296;6.900;2023-05-18T13:04:15;17.60;47.40
66568;DHT22;53422;49.296;6.900;2023-05-18T13:06:41;17.30;48.00
66568;DHT22;53422;49.296;6.900;2023-05-18T13:09:14;17.20;48.70
66568;DHT22;53422;49.296;6.900;2023-05-18T13:11:45;17.30;48.20
66568;DHT22;53422;49.296;6.900;2023-05-18T13:14:11;17.80;48.10
66568;DHT22;53422;49.296;6.900;2023-05-18T13:16:38;18.00;47.60
66568;DHT22;53422;49.296;6.900;2023-05-18T13:19:08;18.00;48.30
66568;DHT22;53422;49.296;6.900;2023-05-18T13:21:35;18.10;48.30
66568;DHT22;53422;49.296;6.900;2023-05-18T13:24:02;18.20;47.50
66568;DHT22;53422;49.296;6.900;2023-05-18T13:26:28;18.20;48.10
66568;DHT22;53422;49.296;6.900;2023-05-18T13:28:55;18.30;47.00
66568;DHT22;53422;49.296;6.900;2023-05-18T13:31:22;18.10;47.30
66568;DHT22;53422;49.296;6.900;2023-05-18T13:33:49;18.00;46.80
66568;DHT22;53422;49.296;6.900;2023-05-18T13:36:15;18.10;47.50
66568;DHT22;53422;49.296;6.900;2023-05-18T13:38:41;18.20;47.20
66568;DHT22;53422;49.296;6.900;2023-05-18T13:41:09;18.20;46.80
66568;DHT22;53422;49.296;6.900;2023-05-18T13:43:36;18.30;47.70
66568;DHT22;53422;49.296;6.900;2023-05-18T13:46:02;18.10;46.10
66568;DHT22;53422;49.296;6.900;2023-05-18T13:48:28;18.20;46.50
66568;DHT22;53422;49.296;6.900;2023-05-18T13:50:54;18.30;47.90
66568;DHT22;53422;49.296;6.900;2023-05-18T13:53:21;18.30;47.30
66568;DHT22;53422;49.296;6.900;2023-05-18T13:55:47;18.40;47.00
66568;DHT22;53422;49.296;6.900;2023-05-18T13:58:13;18.40;47.50
66568;DHT22;53422;49.296;6.900;2023-05-18T14:00:39;18.40;47.50
66568;DHT22;53422;49.296;6.900;2023-05-18T14:03:04;18.30;47.00
66568;DHT22;53422;49.296;6.900;2023-05-18T14:05:30;18.10;46.20
66568;DHT22;53422;49.296;6.900;2023-05-18T14:07:56;18.10;46.60
66568;DHT22;53422;49.296;6.900;2023-05-18T14:10:22;18.20;46.90
66568;DHT22;53422;49.296;6.900;2023-05-18T14:12:48;18.20;45.30
66568;DHT22;53422;49.296;6.900;2023-05-18T14:15:14;18.00;47.40
66568;DHT22;53422;49.296;6.900;2023-05-18T14:17:40;17.50;46.30
66568;DHT22;53422;49.296;6.900;2023-05-18T14:20:06;17.40;46.70
66568;DHT22;53422;49.296;6.900;2023-05-18T14:22:33;17.90;46.40
66568;DHT22;53422;49.296;6.900;2023-05-18T14:24:59;18.10;46.50
66568;DHT22;53422;49.296;6.900;2023-05-18T14:27:25;18.10;46.70
66568;DHT22;53422;49.296;6.900;2023-05-18T14:29:51;18.20;47.50
66568;DHT22;53422;49.296;6.900;2023-05-18T14:32:17;18.30;47.30
66568;DHT22;53422;49.296;6.900;2023-05-18T14:34:50;18.40;46.50
66568;DHT22;53422;49.296;6.900;2023-05-18T14:37:17;18.40;47.20
66568;DHT22;53422;49.296;6.900;2023-05-18T14:39:43;18.30;47.10
66568;DHT22;53422;49.296;6.900;2023-05-18T14:42:08;18.30;47.50
66568;DHT22;53422;49.296;6.900;2023-05-18T14:44:34;18.20;47.70
66568;DHT22;53422;49.296;6.900;2023-05-18T14:47:00;18.30;47.10
66568;DHT22;53422;49.296;6.900;2023-05-18T14:49:26;18.00;45.60
66568;DHT22;53422;49.296;6.900;2023-05-18T14:51:51;18.00;46.90
66568;DHT22;53422;49.296;6.900;2023-05-18T14:54:17;18.00;47.00
66568;DHT22;53422;49.296;6.900;2023-05-18T14:56:44;17.90;46.60
66568;DHT22;53422;49.296;6.900;2023-05-18T14:59:09;17.90;47.30
66568;DHT22;53422;49.296;6.900;2023-05-18T15:01:35;18.00;48.40
66568;DHT22;53422;49.296;6.900;2023-05-18T15:04:01;18.00;47.30
66568;DHT22;53422;49.296;6.900;2023-05-18T15:06:27;17.90;46.70
66568;DHT22;53422;49.296;6.900;2023-05-18T15:08:53;17.80;46.50
66568;DHT22;53422;49.296;6.900;2023-05-18T15:11:19;17.90;45.90
66568;DHT22;53422;49.296;6.900;2023-05-18T15:13:46;17.90;45.30
66568;DHT22;53422;49.296;6.900;2023-05-18T15:16:12;17.70;44.70
66568;DHT22;53422;49.296;6.900;2023-05-18T15:18:39;17.80;44.50
66568;DHT22;53422;49.296;6.900;2023-05-18T15:21:05;17.80;45.00
66568;DHT22;53422;49.296;6.900;2023-05-18T15:23:30;17.70;45.90
66568;DHT22;53422;49.296;6.900;2023-05-18T15:25:56;17.70;45.00
66568;DHT22;53422;49.296;6.900;2023-05-18T15:28:22;17.70;46.70
66568;DHT22;53422;49.296;6.900;2023-05-18T15:30:47;17.60;47.20
66568;DHT22;53422;49.296;6.900;2023-05-18T15:33:13;17.60;47.70
66568;DHT22;53422;49.296;6.900;2023-05-18T15:35:39;17.70;47.50
66568;DHT22;53422;49.296;6.900;2023-05-18T15:38:04;17.60;47.20
66568;DHT22;53422;49.296;6.900;2023-05-18T15:40:30;17.60;47.90
66568;DHT22;53422;49.296;6.900;2023-05-18T15:42:56;17.60;47.60
66568;DHT22;53422;49.296;6.900;2023-05-18T15:45:22;17.50;47.20
66568;DHT22;53422;49.296;6.900;2023-05-18T15:47:47;17.40;47.40
66568;DHT22;53422;49.296;6.900;2023-05-18T15:50:13;17.30;46.70
66568;DHT22;53422;49.296;6.900;2023-05-18T15:52:38;17.30;46.10
66568;DHT22;53422;49.296;6.900;2023-05-18T15:55:05;17.20;46.70
66568;DHT22;53422;49.296;6.900;2023-05-18T15:57:30;17.20;46.90
66568;DHT22;53422;49.296;6.900;2023-05-18T15:59:57;17.10;47.80